Pays
Station

 

Conditions  météo  pour  Marion Regional  -  Etats-Unis    Etats-Unis

  
28 °C
    
 
 

METAR pour Marion Regional :

KMWA 200135Z AUTO 21005KT 10SM CLR 28/21 A2993 RMK AO2 LTG DSNT N T02760209

 

Voici le bulletin pour Marion Regional - Etats-Unis.
 
Le bulletin a été fait il y a 24 minutes, à 01:35 UTC .
Le vent soufflait à la vitesse de 2.6 mètres par seconde de Sud/Sud-ouest (210°).
 
La température était de 28 °C, avec un point de rosée à 21 °C.
La température ressentie était de 30 °C.
 
La pression atmosphérique était de 1014 hPa.
L'humidité relative était de 65.8%.
 
Le ciel était clair.
 
La visibilité globale était de 16.1 kilomètres.
 

 
 
 

Pays :   A   B   C   D   E   F   G   H   I   J   K   L   M   N   O   P   Q   R   S   T   U   V   W   Y   Z

 

Partenaires :  Info Météo avec Met'info
Météo Marine avec MeteoMarine.net
Infos Site  |  Infos Légales  |  Crédits  |  Confidentialité
Contactez-nous  |  Ajouter aux favoris
© 2013-2018 METAR - Tous droits réservés